createdAt,value
2017-05-28T00:00:32.509Z,0
2017-05-28T00:01:42.127Z,0
2017-05-28T00:02:52.059Z,0
2017-05-28T00:04:01.987Z,0
2017-05-28T00:05:11.896Z,0
2017-05-28T00:06:21.909Z,0
2017-05-28T00:07:31.831Z,0
2017-05-28T00:08:41.191Z,0
2017-05-28T00:09:51.112Z,0
2017-05-28T00:11:01.321Z,0
2017-05-28T00:12:10.926Z,0
2017-05-28T00:13:20.528Z,0
2017-05-28T00:14:30.772Z,0
2017-05-28T00:15:41.006Z,0
2017-05-28T00:16:51.232Z,0
2017-05-28T00:18:01.294Z,0
2017-05-28T00:19:11.518Z,0
2017-05-28T00:20:21.447Z,0
2017-05-28T00:21:31.351Z,0
2017-05-28T00:22:41.274Z,0
2017-05-28T00:23:51.486Z,0
2017-05-28T00:25:01.103Z,0
2017-05-28T00:26:10.699Z,0
2017-05-28T00:27:20.608Z,0
2017-05-28T00:28:30.823Z,0
2017-05-28T00:29:41.147Z,0
2017-05-28T00:30:50.752Z,0
2017-05-28T00:32:00.973Z,0
2017-05-28T00:33:10.879Z,0
2017-05-28T00:34:20.483Z,0
2017-05-28T00:35:29.921Z,0
2017-05-28T00:36:39.534Z,0
2017-05-28T00:37:48.848Z,0
2017-05-28T00:38:58.461Z,0
2017-05-28T00:40:08.071Z,0
2017-05-28T00:41:17.367Z,0
2017-05-28T00:42:26.661Z,0
2017-05-28T00:43:36.896Z,0
2017-05-28T00:44:46.801Z,0
2017-05-28T00:45:56.712Z,0
2017-05-28T00:47:06.775Z,0
2017-05-28T00:48:17.003Z,0
2017-05-28T00:49:26.919Z,0
2017-05-28T00:50:37.141Z,0
2017-05-28T00:51:46.738Z,0
2017-05-28T00:52:57.053Z,0
2017-05-28T00:54:06.671Z,0
2017-05-28T00:55:16.586Z,0
2017-05-28T00:56:26.195Z,0
2017-05-28T00:57:36.444Z,0
2017-05-28T00:58:46.659Z,0
2017-05-28T00:59:56.570Z,0
2017-05-28T01:01:06.171Z,0
2017-05-28T01:02:15.771Z,0
2017-05-28T01:03:25.385Z,0
2017-05-28T01:04:35.782Z,0
2017-05-28T01:05:45.396Z,0
2017-05-28T01:06:55.310Z,0
2017-05-28T01:08:05.215Z,0
2017-05-28T01:09:15.430Z,0
2017-05-28T01:10:25.796Z,0
2017-05-28T01:11:35.702Z,0
2017-05-28T01:12:45.302Z,0
2017-05-28T01:13:54.911Z,0
2017-05-28T01:15:04.520Z,0
2017-05-28T01:16:14.577Z,0
2017-05-28T01:17:23.875Z,0
2017-05-28T01:18:33.790Z,0
2017-05-28T01:19:43.398Z,0
2017-05-28T01:20:53.321Z,0
2017-05-28T01:22:03.380Z,0
2017-05-28T01:23:13.351Z,0
2017-05-28T01:24:22.959Z,0
2017-05-28T01:25:33.174Z,0
2017-05-28T01:26:42.799Z,0
2017-05-28T01:27:52.193Z,0
2017-05-28T01:29:02.409Z,0
2017-05-28T01:30:12.616Z,0
2017-05-28T01:31:22.252Z,0
2017-05-28T01:32:32.168Z,0
2017-05-28T01:33:42.251Z,0
2017-05-28T01:34:52.487Z,0
2017-05-28T01:36:02.392Z,0
2017-05-28T01:37:12.310Z,0
2017-05-28T01:38:21.918Z,0
2017-05-28T01:39:31.829Z,0
2017-05-28T01:40:40.819Z,0
2017-05-28T01:41:49.825Z,0
2017-05-28T01:43:00.055Z,0
2017-05-28T01:44:09.694Z,0
2017-05-28T01:45:19.361Z,0
2017-05-28T01:46:29.275Z,0
2017-05-28T01:47:38.912Z,0
2017-05-28T01:48:48.847Z,0
2017-05-28T01:49:59.072Z,0
2017-05-28T01:51:09.451Z,0
2017-05-28T01:52:19.667Z,0
2017-05-28T01:53:29.576Z,0
2017-05-28T01:54:39.484Z,0
2017-05-28T01:55:49.408Z,0
2017-05-28T01:56:58.396Z,0
2017-05-28T01:58:07.996Z,0
2017-05-28T01:59:18.217Z,0
2017-05-28T02:00:27.830Z,0
2017-05-28T02:01:37.762Z,0
2017-05-28T02:02:47.117Z,0
2017-05-28T02:03:57.020Z,0
2017-05-28T02:05:06.315Z,0
2017-05-28T02:06:15.313Z,0
2017-05-28T02:07:24.619Z,0
2017-05-28T02:08:34.991Z,0
2017-05-28T02:09:44.293Z,0
2017-05-28T02:10:54.495Z,0
2017-05-28T02:12:03.798Z,0
2017-05-28T02:13:14.079Z,0
2017-05-28T02:14:23.532Z,0
2017-05-28T02:15:33.446Z,0
2017-05-28T02:16:43.376Z,0
2017-05-28T02:17:53.279Z,0
2017-05-28T02:19:02.882Z,0
2017-05-28T02:20:12.888Z,0
2017-05-28T02:21:22.797Z,0
2017-05-28T02:22:33.008Z,0
2017-05-28T02:23:43.231Z,0
2017-05-28T02:24:53.142Z,0
2017-05-28T02:26:02.817Z,0
2017-05-28T02:27:13.087Z,0
2017-05-28T02:28:22.686Z,0
2017-05-28T02:29:32.618Z,0
2017-05-28T02:30:42.235Z,0
2017-05-28T02:31:52.446Z,0
2017-05-28T02:33:02.675Z,0
2017-05-28T02:34:12.268Z,0
2017-05-28T02:35:22.179Z,0
2017-05-28T02:36:31.784Z,0
2017-05-28T02:37:41.849Z,0
2017-05-28T02:38:51.772Z,0
2017-05-28T02:40:01.991Z,0
2017-05-28T02:41:11.894Z,0
2017-05-28T02:42:22.124Z,0
2017-05-28T02:43:32.338Z,0
2017-05-28T02:44:42.550Z,0
2017-05-28T02:45:52.154Z,0
2017-05-28T02:47:02.085Z,0
2017-05-28T02:48:12.308Z,0
2017-05-28T02:49:21.706Z,0
2017-05-28T02:50:31.614Z,0
2017-05-28T02:51:41.536Z,0
2017-05-28T02:52:51.758Z,0
2017-05-28T02:54:01.674Z,0
2017-05-28T02:55:12.040Z,0
2017-05-28T02:56:21.951Z,0
2017-05-28T02:57:31.857Z,0
2017-05-28T02:58:41.774Z,0
2017-05-28T02:59:52.002Z,0
2017-05-28T03:01:02.016Z,0
2017-05-28T03:02:11.009Z,0
2017-05-28T03:03:20.923Z,0
2017-05-28T03:04:31.147Z,0
2017-05-28T03:05:40.447Z,0
2017-05-28T03:06:50.213Z,0
2017-05-28T03:08:00.422Z,0
2017-05-28T03:09:10.041Z,0
2017-05-28T03:10:19.338Z,0
2017-05-28T03:11:29.245Z,0
2017-05-28T03:12:39.306Z,0
2017-05-28T03:13:49.218Z,0
2017-05-28T03:14:59.493Z,0
2017-05-28T03:16:09.395Z,0
2017-05-28T03:17:19.292Z,0
2017-05-28T03:18:29.723Z,0
2017-05-28T03:19:39.324Z,0
2017-05-28T03:20:49.550Z,0
2017-05-28T03:21:59.779Z,0
2017-05-28T03:23:09.995Z,0
2017-05-28T03:24:20.002Z,0
2017-05-28T03:25:30.214Z,0
2017-05-28T03:26:40.437Z,0
2017-05-28T03:27:50.352Z,0
2017-05-28T03:28:59.959Z,0
2017-05-28T03:30:09.741Z,0
2017-05-28T03:31:19.644Z,0
2017-05-28T03:32:29.859Z,0
2017-05-28T03:33:40.087Z,0
2017-05-28T03:34:49.694Z,0
2017-05-28T03:35:59.762Z,0
2017-05-28T03:37:09.988Z,0
2017-05-28T03:38:19.589Z,0
2017-05-28T03:39:29.490Z,0
2017-05-28T03:40:39.714Z,0
2017-05-28T03:41:49.019Z,0
2017-05-28T03:42:59.237Z,0
2017-05-28T03:44:09.532Z,0
2017-05-28T03:45:19.455Z,0
2017-05-28T03:46:29.368Z,0
2017-05-28T03:47:39.272Z,0
2017-05-28T03:48:49.502Z,0
2017-05-28T03:49:59.415Z,0
2017-05-28T03:51:09.021Z,0
2017-05-28T03:52:18.940Z,0
2017-05-28T03:53:28.968Z,0
2017-05-28T03:54:38.874Z,0
2017-05-28T03:55:48.490Z,0
2017-05-28T03:56:58.408Z,5
2017-05-28T03:58:08.012Z,5
2017-05-28T03:59:17.752Z,5
2017-05-28T04:00:27.663Z,5
2017-05-28T04:01:37.272Z,5
2017-05-28T04:02:47.186Z,5
2017-05-28T04:03:56.804Z,5
2017-05-28T04:05:06.888Z,5
2017-05-28T04:06:17.178Z,5
2017-05-28T04:07:26.783Z,5
2017-05-28T04:08:37.012Z,5
2017-05-28T04:09:47.248Z,5
2017-05-28T04:10:57.003Z,5
2017-05-28T04:12:06.913Z,5
2017-05-28T04:13:16.886Z,5
2017-05-28T04:14:27.103Z,5
2017-05-28T04:15:37.328Z,5
2017-05-28T04:16:47.285Z,5
2017-05-28T04:17:56.891Z,5
2017-05-28T04:19:06.819Z,5
2017-05-28T04:20:16.727Z,5
2017-05-28T04:21:26.325Z,5
2017-05-28T04:22:36.697Z,5
2017-05-28T04:23:46.914Z,5
2017-05-28T04:24:57.132Z,10
2017-05-28T04:26:07.050Z,10
2017-05-28T04:27:16.960Z,10
2017-05-28T04:28:26.907Z,10
2017-05-28T04:29:36.815Z,10
2017-05-28T04:30:46.730Z,10
2017-05-28T04:31:56.640Z,10
2017-05-28T04:33:06.564Z,10
2017-05-28T04:34:16.815Z,10
2017-05-28T04:35:27.029Z,10
2017-05-28T04:36:36.650Z,10
2017-05-28T04:37:46.856Z,10
2017-05-28T04:38:56.782Z,10
2017-05-28T04:40:06.791Z,10
2017-05-28T04:41:16.694Z,10
2017-05-28T04:42:26.915Z,10
2017-05-28T04:43:37.145Z,10
2017-05-28T04:44:47.360Z,10
2017-05-28T04:45:56.965Z,10
2017-05-28T04:47:06.577Z,10
2017-05-28T04:48:16.192Z,10
2017-05-28T04:49:25.792Z,10
2017-05-28T04:50:35.686Z,10
2017-05-28T04:51:45.594Z,10
2017-05-28T04:52:55.515Z,10
2017-05-28T04:54:05.746Z,10
2017-05-28T04:55:15.959Z,10
2017-05-28T04:56:25.594Z,10
2017-05-28T04:57:35.668Z,10
2017-05-28T04:58:45.277Z,10
2017-05-28T04:59:54.875Z,10
2017-05-28T05:03:36.873Z,15
2017-05-28T05:04:46.484Z,15
2017-05-28T05:05:56.385Z,15
2017-05-28T05:07:06.006Z,15
2017-05-28T05:08:15.922Z,15
2017-05-28T05:09:25.828Z,15
2017-05-28T05:10:36.044Z,15
2017-05-28T05:11:45.959Z,20
2017-05-28T05:12:55.593Z,20
2017-05-28T05:14:05.198Z,20
2017-05-28T05:15:15.913Z,25
2017-05-28T05:16:25.819Z,25
2017-05-28T05:17:35.737Z,25
2017-05-28T05:18:45.642Z,25
2017-05-28T05:19:55.239Z,30
2017-05-28T05:21:05.012Z,25
2017-05-28T05:22:14.605Z,20
2017-05-28T05:23:24.220Z,20
2017-05-28T05:24:34.150Z,20
2017-05-28T05:25:44.364Z,20
2017-05-28T05:26:54.117Z,20
2017-05-28T05:28:03.720Z,20
2017-05-28T05:29:13.944Z,20
2017-05-28T05:30:23.263Z,20
2017-05-28T05:31:33.200Z,15
2017-05-28T05:32:42.863Z,20
2017-05-28T05:33:53.091Z,20
2017-05-28T05:35:03.003Z,20
2017-05-28T05:36:12.289Z,25
2017-05-28T05:37:21.883Z,25
2017-05-28T05:38:32.398Z,25
2017-05-28T05:39:42.614Z,25
2017-05-28T05:40:52.532Z,35
2017-05-28T05:42:02.131Z,30
2017-05-28T05:43:12.057Z,25
2017-05-28T05:44:21.494Z,25
2017-05-28T05:45:31.704Z,30
2017-05-28T05:46:41.303Z,30
2017-05-28T05:47:50.904Z,35
2017-05-28T05:49:01.176Z,30
2017-05-28T05:50:11.224Z,40
2017-05-28T05:51:21.813Z,35
2017-05-28T05:52:31.711Z,30
2017-05-28T05:53:41.333Z,30
2017-05-28T05:54:50.932Z,30
2017-05-28T05:56:00.949Z,30
2017-05-28T05:57:10.237Z,30
2017-05-28T05:58:20.155Z,30
2017-05-28T05:59:30.059Z,30
2017-05-28T06:00:39.649Z,35
2017-05-28T06:01:49.554Z,35
2017-05-28T06:02:58.854Z,35
2017-05-28T06:04:08.763Z,30
2017-05-28T06:05:19.003Z,30
2017-05-28T06:06:29.202Z,30
2017-05-28T06:07:38.491Z,30
2017-05-28T06:08:48.415Z,30
2017-05-28T06:09:58.328Z,30
2017-05-28T06:11:07.937Z,30
2017-05-28T06:12:17.848Z,25
2017-05-28T06:13:28.078Z,25
2017-05-28T06:14:38.299Z,25
2017-05-28T06:15:48.537Z,25
2017-05-28T06:16:58.442Z,25
2017-05-28T06:18:08.460Z,20
2017-05-28T06:19:18.058Z,25
2017-05-28T06:20:28.011Z,25
2017-05-28T06:21:37.918Z,25
2017-05-28T06:22:47.827Z,25
2017-05-28T06:23:58.141Z,25
2017-05-28T06:25:08.047Z,25
2017-05-28T06:26:17.632Z,25
2017-05-28T06:27:27.546Z,25
2017-05-28T06:28:37.143Z,30
2017-05-28T06:29:47.498Z,35
2017-05-28T06:30:57.092Z,45
2017-05-28T06:32:06.688Z,55
2017-05-28T06:33:16.603Z,60
2017-05-28T06:34:26.808Z,60
2017-05-28T06:35:37.166Z,60
2017-05-28T06:36:47.064Z,60
2017-05-28T06:37:57.005Z,60
2017-05-28T06:39:06.603Z,60
2017-05-28T06:40:16.506Z,55
2017-05-28T06:41:26.413Z,55
2017-05-28T06:42:36.321Z,55
2017-05-28T06:43:45.932Z,55
2017-05-28T06:44:55.531Z,55
2017-05-28T06:46:05.455Z,55
2017-05-28T06:47:15.412Z,55
2017-05-28T06:48:25.341Z,60
2017-05-28T06:49:35.593Z,75
2017-05-28T06:50:45.497Z,85
2017-05-28T06:51:55.439Z,90
2017-05-28T06:53:05.649Z,90
2017-05-28T06:54:15.256Z,90
2017-05-28T06:55:25.485Z,100
2017-05-28T06:56:35.390Z,105
2017-05-28T06:57:44.986Z,100
2017-05-28T06:58:54.336Z,105
2017-05-28T07:00:03.950Z,110
2017-05-28T07:01:13.848Z,105
2017-05-28T07:02:23.473Z,100
2017-05-28T07:03:33.393Z,95
2017-05-28T07:04:43.681Z,95
2017-05-28T07:05:53.337Z,95
2017-05-28T07:07:03.567Z,100
2017-05-28T07:08:12.549Z,120
2017-05-28T07:09:22.765Z,125
2017-05-28T07:10:33.128Z,90
2017-05-28T07:11:42.725Z,100
2017-05-28T07:12:52.630Z,125
2017-05-28T07:14:02.837Z,85
2017-05-28T07:15:12.743Z,75
2017-05-28T07:16:23.073Z,80
2017-05-28T07:17:32.680Z,80
2017-05-28T07:18:41.993Z,125
2017-05-28T07:19:52.222Z,115
2017-05-28T07:21:02.146Z,100
2017-05-28T07:22:11.755Z,125
2017-05-28T07:23:21.357Z,155
2017-05-28T07:24:31.282Z,150
2017-05-28T07:25:41.489Z,80
2017-05-28T07:26:51.742Z,95
2017-05-28T07:28:01.351Z,100
2017-05-28T07:29:10.964Z,75
2017-05-28T07:30:20.884Z,80
2017-05-28T07:31:31.120Z,85
2017-05-28T07:32:41.046Z,105
2017-05-28T07:33:50.751Z,105
2017-05-28T07:35:00.674Z,95
2017-05-28T07:36:10.613Z,70
2017-05-28T07:37:20.846Z,170
2017-05-28T07:38:30.472Z,125
2017-05-28T07:39:40.396Z,380
2017-05-28T07:40:49.092Z,705
2017-05-28T07:41:58.698Z,645
2017-05-28T07:43:08.609Z,650
2017-05-28T07:44:18.530Z,760
2017-05-28T07:45:28.454Z,450
2017-05-28T07:46:38.388Z,685
2017-05-28T07:47:48.310Z,285
2017-05-28T07:48:57.613Z,690
2017-05-28T07:50:07.206Z,815
2017-05-28T07:51:16.650Z,795
2017-05-28T07:52:26.258Z,785
2017-05-28T07:53:36.178Z,790
2017-05-28T07:54:46.390Z,790
2017-05-28T07:55:56.301Z,785
2017-05-28T07:57:06.242Z,715
2017-05-28T07:58:16.163Z,570
2017-05-28T07:59:25.785Z,690
2017-05-28T08:00:35.711Z,575
2017-05-28T08:01:45.617Z,620
2017-05-28T08:02:55.380Z,650
2017-05-28T08:04:05.305Z,420
2017-05-28T08:05:15.748Z,280
2017-05-28T08:06:25.967Z,145
2017-05-28T08:07:35.878Z,130
2017-05-28T08:08:46.537Z,220
2017-05-28T08:09:56.880Z,395
2017-05-28T08:11:06.793Z,340
2017-05-28T08:12:16.404Z,505
2017-05-28T08:13:26.808Z,195
2017-05-28T08:14:36.901Z,200
2017-05-28T08:15:47.405Z,80
2017-05-28T08:16:57.062Z,40
2017-05-28T08:18:06.975Z,30
2017-05-28T08:19:16.576Z,30
2017-05-28T08:20:26.235Z,40
2017-05-28T08:21:36.463Z,85
2017-05-28T08:22:46.361Z,95
2017-05-28T08:23:56.275Z,75
2017-05-28T08:25:05.871Z,65
2017-05-28T08:26:15.578Z,90
2017-05-28T08:27:25.428Z,120
2017-05-28T08:28:35.356Z,110
2017-05-28T08:29:45.280Z,50
2017-05-28T08:30:54.960Z,40
2017-05-28T08:32:05.515Z,40
2017-05-28T08:33:15.127Z,45
2017-05-28T08:34:24.435Z,60
2017-05-28T08:35:34.379Z,50
2017-05-28T08:36:44.419Z,35
2017-05-28T08:37:55.105Z,25
2017-05-28T08:39:04.712Z,25
2017-05-28T08:40:14.005Z,20
2017-05-28T08:41:24.236Z,20
2017-05-28T08:42:34.498Z,20
2017-05-28T08:43:44.460Z,15
2017-05-28T08:44:54.066Z,15
2017-05-28T08:46:03.684Z,15
2017-05-28T08:47:13.294Z,10
2017-05-28T08:48:23.204Z,10
2017-05-28T08:49:33.014Z,10
2017-05-28T08:50:42.670Z,10
2017-05-28T08:51:52.598Z,10
2017-05-28T08:53:02.537Z,10
2017-05-28T08:54:12.775Z,10
2017-05-28T08:55:22.701Z,10
2017-05-28T08:56:32.644Z,10
2017-05-28T08:57:42.586Z,10
2017-05-28T08:58:52.714Z,10
2017-05-28T09:00:03.331Z,10
2017-05-28T09:01:12.813Z,10
2017-05-28T09:02:22.775Z,10
2017-05-28T09:03:32.385Z,10
2017-05-28T09:04:42.291Z,10
2017-05-28T09:05:52.199Z,15
2017-05-28T09:07:02.118Z,15
2017-05-28T09:08:12.030Z,10
2017-05-28T09:09:22.259Z,10
2017-05-28T09:10:32.164Z,10
2017-05-28T09:11:42.393Z,10
2017-05-28T09:12:52.635Z,10
2017-05-28T09:14:02.851Z,15
2017-05-28T09:15:12.454Z,20
2017-05-28T09:16:22.425Z,20
2017-05-28T09:17:32.211Z,25
2017-05-28T09:18:42.052Z,25
2017-05-28T09:19:51.970Z,25
2017-05-28T09:21:01.887Z,20
2017-05-28T09:22:11.169Z,20
2017-05-28T09:23:21.399Z,20
2017-05-28T09:24:30.933Z,15
2017-05-28T09:25:41.072Z,15
2017-05-28T09:26:52.050Z,10
2017-05-28T09:28:01.731Z,10
2017-05-28T09:29:11.936Z,10
2017-05-28T09:30:21.997Z,10
2017-05-28T09:31:31.938Z,10
2017-05-28T09:32:42.162Z,10
2017-05-28T09:33:51.487Z,10
2017-05-28T09:35:01.707Z,10
2017-05-28T09:36:12.171Z,10
2017-05-28T09:37:21.248Z,10
2017-05-28T09:38:30.849Z,10
2017-05-28T09:39:41.499Z,15
2017-05-28T09:40:51.402Z,15
2017-05-28T09:42:01.449Z,20
2017-05-28T09:43:11.669Z,25
2017-05-28T09:44:21.580Z,30
2017-05-28T09:45:31.494Z,35
2017-05-28T09:46:41.103Z,40
2017-05-28T09:47:50.871Z,45
2017-05-28T09:49:00.776Z,45
2017-05-28T09:50:10.980Z,45
2017-05-28T09:51:20.882Z,45
2017-05-28T09:52:30.498Z,45
2017-05-28T09:53:40.716Z,40
2017-05-28T09:54:50.639Z,40
2017-05-28T09:56:00.560Z,40
2017-05-28T09:57:10.167Z,35
2017-05-28T09:58:19.789Z,35
2017-05-28T09:59:29.997Z,35
2017-05-28T10:00:39.910Z,35
2017-05-28T10:01:49.821Z,35
2017-05-28T10:02:59.426Z,35
2017-05-28T10:04:09.344Z,35
2017-05-28T10:05:19.612Z,35
2017-05-28T10:06:29.217Z,35
2017-05-28T10:07:39.132Z,30
2017-05-28T10:08:48.740Z,35
2017-05-28T10:09:58.740Z,35
2017-05-28T10:11:08.758Z,30
2017-05-28T10:12:18.983Z,35
2017-05-28T10:13:28.584Z,40
2017-05-28T10:14:38.517Z,45
2017-05-28T10:15:48.141Z,50
2017-05-28T10:16:58.047Z,60
2017-05-28T10:18:07.353Z,65
2017-05-28T10:19:17.255Z,65
2017-05-28T10:20:26.863Z,70
2017-05-28T10:21:37.087Z,65
2017-05-28T10:22:47.312Z,65
2017-05-28T10:23:57.229Z,65
2017-05-28T10:25:07.132Z,65
2017-05-28T10:26:16.731Z,60
2017-05-28T10:27:26.641Z,60
2017-05-28T10:28:36.708Z,55
2017-05-28T10:29:46.009Z,55
2017-05-28T10:30:55.604Z,50
2017-05-28T10:32:05.213Z,50
2017-05-28T10:33:15.129Z,45
2017-05-28T10:34:24.428Z,45
2017-05-28T10:35:33.426Z,40
2017-05-28T10:36:43.641Z,40
2017-05-28T10:37:53.866Z,35
2017-05-28T10:39:03.479Z,35
2017-05-28T10:40:13.537Z,40
2017-05-28T10:41:23.148Z,40
2017-05-28T10:42:33.360Z,40
2017-05-28T10:43:43.278Z,40
2017-05-28T10:44:53.500Z,35
2017-05-28T10:46:02.796Z,35
2017-05-28T10:47:12.763Z,35
2017-05-28T10:48:23.347Z,35
2017-05-28T10:49:33.187Z,35
2017-05-28T10:50:43.140Z,35
2017-05-28T10:51:53.509Z,30
2017-05-28T10:53:03.123Z,30
2017-05-28T10:54:13.023Z,30
2017-05-28T10:55:23.251Z,30
2017-05-28T10:56:33.186Z,30
2017-05-28T10:57:43.195Z,30
2017-05-28T10:58:52.815Z,30
2017-05-28T11:00:02.751Z,30
2017-05-28T11:01:12.042Z,30
2017-05-28T11:02:21.643Z,30
2017-05-28T11:03:31.677Z,25
2017-05-28T11:04:41.587Z,30
2017-05-28T11:05:51.499Z,30
2017-05-28T11:07:00.817Z,30
2017-05-28T11:08:10.723Z,30
2017-05-28T11:09:20.740Z,30
2017-05-28T11:10:30.955Z,30
2017-05-28T11:11:41.169Z,30
2017-05-28T11:12:50.770Z,30
2017-05-28T11:14:00.695Z,30
2017-05-28T11:15:10.354Z,25
2017-05-28T11:16:20.573Z,30
2017-05-28T11:17:30.190Z,30
2017-05-28T11:18:40.136Z,30
2017-05-28T11:19:50.367Z,30
2017-05-28T11:21:00.385Z,30
2017-05-28T11:22:10.002Z,30
2017-05-28T11:23:20.249Z,35
2017-05-28T11:24:30.475Z,40
2017-05-28T11:25:40.385Z,35
2017-05-28T11:26:50.041Z,35
2017-05-28T11:27:59.960Z,35
2017-05-28T11:29:09.566Z,30
2017-05-28T11:30:19.173Z,35
2017-05-28T11:31:29.081Z,30
2017-05-28T11:32:39.043Z,35
2017-05-28T11:33:48.642Z,35
2017-05-28T11:34:58.551Z,30
2017-05-28T11:36:08.153Z,30
2017-05-28T11:37:18.379Z,25
2017-05-28T11:38:27.981Z,25
2017-05-28T11:39:37.598Z,25
2017-05-28T11:40:47.254Z,25
2017-05-28T11:41:57.171Z,25
2017-05-28T11:43:07.076Z,25
2017-05-28T11:44:17.146Z,30
2017-05-28T11:45:26.738Z,25
2017-05-28T11:46:36.334Z,25
2017-05-28T11:47:46.552Z,25
2017-05-28T11:48:56.462Z,25
2017-05-28T11:50:06.824Z,25
2017-05-28T11:51:16.124Z,25
2017-05-28T11:52:25.731Z,25
2017-05-28T11:53:35.943Z,25
2017-05-28T11:54:46.162Z,30
2017-05-28T11:55:56.889Z,25
2017-05-28T11:57:07.113Z,25
2017-05-28T11:58:16.725Z,25
2017-05-28T11:59:26.636Z,25
2017-05-28T12:00:36.547Z,25
2017-05-28T12:01:46.614Z,25
2017-05-28T12:02:56.519Z,25
2017-05-28T12:04:06.139Z,25
2017-05-28T12:05:16.050Z,25
2017-05-28T12:06:25.676Z,25
2017-05-28T12:07:35.637Z,25
2017-05-28T12:08:45.546Z,25
2017-05-28T12:09:55.792Z,25
2017-05-28T12:11:05.713Z,25
2017-05-28T12:12:15.616Z,25
2017-05-28T12:13:25.574Z,20
2017-05-28T12:14:35.480Z,20
2017-05-28T12:15:45.409Z,20
2017-05-28T12:16:55.350Z,20
2017-05-28T12:18:05.569Z,20
2017-05-28T12:19:15.246Z,20
2017-05-28T12:20:24.545Z,20
2017-05-28T12:21:34.451Z,20
2017-05-28T12:22:43.753Z,20
2017-05-28T12:23:53.657Z,20
2017-05-28T12:25:03.266Z,20
2017-05-28T12:26:13.487Z,25
2017-05-28T12:27:23.416Z,25
2017-05-28T12:28:32.741Z,25
2017-05-28T12:29:42.372Z,25
2017-05-28T12:30:52.452Z,25
2017-05-28T12:32:02.457Z,25
2017-05-28T12:33:11.763Z,30
2017-05-28T12:34:21.065Z,30
2017-05-28T12:35:30.084Z,30
2017-05-28T12:36:39.841Z,30
2017-05-28T12:37:49.756Z,30
2017-05-28T12:38:59.689Z,30
2017-05-28T12:40:09.614Z,30
2017-05-28T12:41:19.523Z,30
2017-05-28T12:42:30.089Z,25
2017-05-28T12:43:39.703Z,25
2017-05-28T12:44:49.623Z,25
2017-05-28T12:45:59.242Z,25
2017-05-28T12:47:09.480Z,25
2017-05-28T12:48:19.401Z,30
2017-05-28T12:49:29.645Z,30
2017-05-28T12:50:39.875Z,35
2017-05-28T12:51:49.805Z,35
2017-05-28T12:52:59.731Z,35
2017-05-28T12:54:09.662Z,35
2017-05-28T12:55:19.577Z,30
2017-05-28T12:56:28.957Z,25
2017-05-28T12:57:38.291Z,25
2017-05-28T12:58:48.511Z,25
2017-05-28T12:59:58.584Z,25
2017-05-28T13:01:08.498Z,25
2017-05-28T13:02:18.104Z,25
2017-05-28T13:03:27.400Z,25
2017-05-28T13:04:37.012Z,30
2017-05-28T13:05:47.138Z,30
2017-05-28T13:06:56.471Z,30
2017-05-28T13:08:06.385Z,25
2017-05-28T13:09:16.006Z,25
2017-05-28T13:10:25.632Z,25
2017-05-28T13:11:35.868Z,25
2017-05-28T13:12:45.492Z,25
2017-05-28T13:13:55.108Z,25
2017-05-28T13:15:05.022Z,25
2017-05-28T13:16:14.632Z,25
2017-05-28T13:17:24.759Z,25
2017-05-28T13:18:34.815Z,25
2017-05-28T13:19:45.780Z,25
2017-05-28T13:20:55.881Z,25
2017-05-28T13:22:05.894Z,25
2017-05-28T13:23:15.397Z,25
2017-05-28T13:24:25.429Z,25
2017-05-28T13:25:34.854Z,25
2017-05-28T13:26:44.759Z,25
2017-05-28T13:27:54.362Z,25
2017-05-28T13:29:05.807Z,25
2017-05-28T13:30:15.466Z,20
2017-05-28T13:31:25.407Z,25
2017-05-28T13:32:35.738Z,25
2017-05-28T13:33:45.371Z,25
2017-05-28T13:34:55.189Z,30
2017-05-28T13:36:04.568Z,25
2017-05-28T13:37:14.522Z,25
2017-05-28T13:38:24.171Z,20
2017-05-28T13:39:34.102Z,20
2017-05-28T13:40:44.487Z,25
2017-05-28T13:41:54.737Z,25
2017-05-28T13:43:04.436Z,25
2017-05-28T13:44:14.349Z,25
2017-05-28T13:45:24.386Z,25
2017-05-28T13:46:34.842Z,25
2017-05-28T13:47:44.818Z,20
2017-05-28T13:48:54.104Z,20
2017-05-28T13:50:04.246Z,20
2017-05-28T13:51:14.531Z,20
2017-05-28T13:52:24.254Z,20
2017-05-28T13:53:34.943Z,20
2017-05-28T13:54:44.888Z,20
2017-05-28T13:55:54.515Z,20
2017-05-28T13:57:04.146Z,15
2017-05-28T13:58:14.113Z,15
2017-05-28T13:59:24.811Z,15
2017-05-28T14:00:34.435Z,15
2017-05-28T14:01:44.045Z,20
2017-05-28T14:02:54.274Z,20
2017-05-28T14:04:05.063Z,20
2017-05-28T14:05:14.988Z,20
2017-05-28T14:06:25.201Z,20
2017-05-28T14:07:35.126Z,20
2017-05-28T14:08:45.352Z,20
2017-05-28T14:09:55.029Z,20
2017-05-28T14:11:04.362Z,20
2017-05-28T14:12:14.580Z,25
2017-05-28T14:13:24.520Z,20
2017-05-28T14:14:34.784Z,20
2017-05-28T14:15:45.106Z,25
2017-05-28T14:16:54.712Z,25
2017-05-28T14:18:04.631Z,20
2017-05-28T14:19:14.242Z,20
2017-05-28T14:20:24.156Z,20
2017-05-28T14:21:34.071Z,20
2017-05-28T14:22:43.992Z,20
2017-05-28T14:23:53.911Z,20
2017-05-28T14:25:03.511Z,20
2017-05-28T14:26:13.413Z,25
2017-05-28T14:27:23.377Z,25
2017-05-28T14:28:33.353Z,25
2017-05-28T14:29:43.284Z,25
2017-05-28T14:30:53.528Z,25
2017-05-28T14:32:02.892Z,25
2017-05-28T14:33:13.153Z,25
2017-05-28T14:34:23.085Z,25
2017-05-28T14:35:33.333Z,25
2017-05-28T14:36:42.664Z,30
2017-05-28T14:37:52.607Z,35
2017-05-28T14:39:02.362Z,30
2017-05-28T14:40:11.667Z,30
2017-05-28T14:41:20.686Z,25
2017-05-28T14:42:30.304Z,25
2017-05-28T14:43:40.357Z,25
2017-05-28T14:44:50.741Z,30
2017-05-28T14:46:00.963Z,30
2017-05-28T14:47:11.214Z,30
2017-05-28T14:48:21.197Z,30
2017-05-28T14:49:31.133Z,25
2017-05-28T14:50:40.898Z,25
2017-05-28T14:51:50.832Z,25
2017-05-28T14:53:00.157Z,25
2017-05-28T14:54:09.472Z,25
2017-05-28T14:55:19.729Z,25
2017-05-28T14:56:29.500Z,25
2017-05-28T14:57:39.117Z,20
2017-05-28T14:58:48.769Z,20
2017-05-28T14:59:58.708Z,15
2017-05-28T15:01:08.667Z,15
2017-05-28T15:02:18.648Z,15
2017-05-28T15:03:28.594Z,15
2017-05-28T15:04:38.835Z,15
2017-05-28T15:05:49.088Z,15
2017-05-28T15:06:59.356Z,20
2017-05-28T15:08:09.323Z,20
2017-05-28T15:09:18.636Z,20
2017-05-28T15:10:28.880Z,25
2017-05-28T15:11:38.190Z,25
2017-05-28T15:12:48.446Z,25
2017-05-28T15:13:58.765Z,25
2017-05-28T15:15:08.524Z,25
2017-05-28T15:16:17.823Z,25
2017-05-28T15:17:27.734Z,25
2017-05-28T15:18:37.997Z,25
2017-05-28T15:19:48.154Z,25
2017-05-28T15:20:58.372Z,30
2017-05-28T15:22:08.610Z,30
2017-05-28T15:23:18.558Z,30
2017-05-28T15:24:28.782Z,35
2017-05-28T15:25:39.845Z,35
2017-05-28T15:26:49.542Z,35
2017-05-28T15:27:58.563Z,30
2017-05-28T15:29:08.483Z,30
2017-05-28T15:30:18.094Z,30
2017-05-28T15:31:27.706Z,25
2017-05-28T15:32:37.319Z,25
2017-05-28T15:33:47.235Z,25
2017-05-28T15:34:57.157Z,25
2017-05-28T15:36:07.384Z,25
2017-05-28T15:37:17.460Z,20
2017-05-28T15:38:27.700Z,20
2017-05-28T15:39:37.918Z,20
2017-05-28T15:40:48.155Z,20
2017-05-28T15:41:57.448Z,20
2017-05-28T15:43:07.531Z,20
2017-05-28T15:44:17.854Z,20
2017-05-28T15:45:27.482Z,15
2017-05-28T15:46:37.426Z,15
2017-05-28T15:47:46.748Z,15
2017-05-28T15:48:56.538Z,15
2017-05-28T15:50:05.900Z,15
2017-05-28T15:51:15.735Z,15
2017-05-28T15:52:25.996Z,15
2017-05-28T15:53:36.258Z,15
2017-05-28T15:54:46.201Z,15
2017-05-28T15:55:55.816Z,15
2017-05-28T15:57:05.124Z,15
2017-05-28T15:58:15.356Z,15
2017-05-28T15:59:24.977Z,15
2017-05-28T16:00:35.336Z,15
2017-05-28T16:01:44.675Z,15
2017-05-28T16:02:54.901Z,15
2017-05-28T16:04:04.533Z,15
2017-05-28T16:05:14.191Z,15
2017-05-28T16:06:23.495Z,15
2017-05-28T16:07:33.106Z,15
2017-05-28T16:08:42.725Z,10
2017-05-28T16:09:52.670Z,10
2017-05-28T16:11:02.581Z,10
2017-05-28T16:12:11.882Z,10
2017-05-28T16:13:21.525Z,10
2017-05-28T16:14:31.746Z,10
2017-05-28T16:15:42.342Z,10
2017-05-28T16:16:52.259Z,10
2017-05-28T16:18:02.341Z,10
2017-05-28T16:19:11.956Z,10
2017-05-28T16:20:22.188Z,10
2017-05-28T16:21:32.115Z,10
2017-05-28T16:22:41.739Z,10
2017-05-28T16:23:51.798Z,10
2017-05-28T16:25:01.419Z,10
2017-05-28T16:26:11.655Z,10
2017-05-28T16:27:21.020Z,10
2017-05-28T16:28:31.244Z,10
2017-05-28T16:29:40.855Z,10
2017-05-28T16:30:50.464Z,10
2017-05-28T16:32:00.479Z,10
2017-05-28T16:33:10.138Z,10
2017-05-28T16:34:20.470Z,10
2017-05-28T16:35:29.519Z,15
2017-05-28T16:36:40.714Z,15
2017-05-28T16:37:50.362Z,15
2017-05-28T16:39:00.288Z,15
2017-05-28T16:40:10.202Z,15
2017-05-28T16:41:20.156Z,15
2017-05-28T16:42:29.192Z,15
2017-05-28T16:43:39.115Z,15
2017-05-28T16:44:49.348Z,20
2017-05-28T16:45:59.268Z,20